Time;durP1;ratioP1;P1;durP2;ratioP2;P2;SDS_P1;SDS_P2;PMS_P1;PMS_P2;Temp;Humidity;BMP_temperature;BMP_pressure;BME280_temperature;BME280_humidity;BME280_pressure;Samples;Min_cycle;Max_cycle;Signal;HPM_P1;HPM_P2
2023/05/16 00:00:42;;;;;;;22.33;3.60;;;;;;;;;;5136776;27;20537;-77
2023/05/16 00:03:10;;;;;;;17.83;3.10;;;;;;;;;;5134289;27;20039;-76
2023/05/16 00:05:37;;;;;;;22.95;3.72;;;;;;;;;;5134498;27;20080;-76
2023/05/16 00:08:03;;;;;;;17.67;3.13;;;;;;;;;;5126445;27;20058;-77
2023/05/16 00:10:29;;;;;;;25.33;3.50;;;;;;;;;;5129103;27;20046;-77
2023/05/16 00:12:56;;;;;;;18.20;4.20;;;;;;;;;;5127840;27;20044;-76
2023/05/16 00:15:23;;;;;;;25.52;3.80;;;;;;;;;;5132712;27;20135;-76
2023/05/16 00:17:50;;;;;;;24.80;3.40;;;;;;;;;;5125982;27;20051;-77
2023/05/16 00:20:17;;;;;;;17.17;2.83;;;;;;;;;;5128353;27;20047;-77
2023/05/16 00:22:45;;;;;;;21.58;3.47;;;;;;;;;;5133826;27;20039;-76
2023/05/16 00:25:11;;;;;;;22.58;3.53;;;;;;;;;;5119995;27;20085;-77
2023/05/16 00:27:37;;;;;;;23.67;3.00;;;;;;;;;;5134991;27;20047;-77
2023/05/16 00:30:03;;;;;;;24.77;3.55;;;;;;;;;;5134068;27;20058;-77
2023/05/16 00:32:29;;;;;;;18.27;3.20;;;;;;;;;;5134370;27;20039;-77
2023/05/16 00:34:55;;;;;;;20.90;3.10;;;;;;;;;;5134977;27;20065;-78
2023/05/16 00:37:21;;;;;;;21.42;3.03;;;;;;;;;;5114915;27;20492;-77
2023/05/16 00:39:47;;;;;;;22.25;2.95;;;;;;;;;;5134869;27;20043;-77
2023/05/16 00:42:14;;;;;;;20.48;3.33;;;;;;;;;;5135192;27;20378;-77
2023/05/16 00:44:40;;;;;;;15.07;2.78;;;;;;;;;;5134986;27;20046;-77
2023/05/16 00:47:07;;;;;;;21.52;3.20;;;;;;;;;;5134168;28;20039;-76
2023/05/16 00:49:33;;;;;;;24.85;3.60;;;;;;;;;;5135077;28;20054;-77
2023/05/16 00:51:59;;;;;;;21.60;3.08;;;;;;;;;;5135219;28;20369;-77
2023/05/16 00:54:28;;;;;;;16.27;2.65;;;;;;;;;;5136854;27;20147;-77
2023/05/16 00:56:55;;;;;;;19.88;3.40;;;;;;;;;;5139223;27;20039;-77
2023/05/16 00:59:21;;;;;;;20.08;3.67;;;;;;;;;;5120608;27;20047;-77
2023/05/16 01:01:47;;;;;;;24.48;3.35;;;;;;;;;;5138281;27;20042;-77
2023/05/16 01:04:13;;;;;;;21.58;3.28;;;;;;;;;;5137614;27;20482;-77
2023/05/16 01:06:42;;;;;;;21.48;3.20;;;;;;;;;;5135149;27;20047;-77
2023/05/16 01:09:08;;;;;;;19.75;2.65;;;;;;;;;;5138456;27;20087;-76
2023/05/16 01:11:43;;;;;;;23.25;3.53;;;;;;;;;;5136408;27;20050;-78
2023/05/16 01:14:14;;;;;;;20.20;3.25;;;;;;;;;;5135410;27;20051;-78
2023/05/16 01:16:59;;;;;;;18.73;3.38;;;;;;;;;;5129894;27;20039;-78
2023/05/16 01:19:44;;;;;;;16.52;2.78;;;;;;;;;;5132321;27;20055;-77
2023/05/16 01:22:16;;;;;;;19.30;3.28;;;;;;;;;;5131685;27;20054;-78
2023/05/16 01:25:04;;;;;;;14.35;2.58;;;;;;;;;;5130708;27;20489;-76
2023/05/16 01:27:31;;;;;;;21.42;3.30;;;;;;;;;;5115099;27;20043;-77
2023/05/16 01:29:58;;;;;;;17.48;3.30;;;;;;;;;;5133171;27;20035;-78
2023/05/16 01:32:24;;;;;;;19.27;2.70;;;;;;;;;;5132058;27;20040;-78
2023/05/16 01:34:50;;;;;;;17.25;3.05;;;;;;;;;;5130684;27;20031;-78
2023/05/16 01:37:24;;;;;;;19.83;2.78;;;;;;;;;;5129720;27;20047;-78
2023/05/16 01:39:52;;;;;;;19.00;3.40;;;;;;;;;;5129899;27;20083;-78
2023/05/16 01:42:21;;;;;;;15.10;2.65;;;;;;;;;;5136402;27;20051;-78
2023/05/16 01:44:56;;;;;;;19.15;2.97;;;;;;;;;;5129691;27;20046;-78
2023/05/16 01:47:24;;;;;;;18.42;2.83;;;;;;;;;;5130151;27;20481;-78
2023/05/16 01:50:05;;;;;;;14.95;2.55;;;;;;;;;;5130028;27;20062;-77
2023/05/16 01:52:51;;;;;;;18.52;2.50;;;;;;;;;;5130377;27;20046;-77
2023/05/16 01:55:33;;;;;;;19.88;3.05;;;;;;;;;;5114701;27;20035;-77
2023/05/16 01:58:00;;;;;;;20.80;2.80;;;;;;;;;;5137400;27;20043;-78
2023/05/16 02:00:26;;;;;;;16.33;2.60;;;;;;;;;;5137684;27;20043;-77
2023/05/16 02:02:52;;;;;;;17.48;2.70;;;;;;;;;;5135495;27;20043;-78
2023/05/16 02:05:18;;;;;;;19.38;2.33;;;;;;;;;;5137435;27;20484;-78
2023/05/16 02:07:44;;;;;;;20.00;3.50;;;;;;;;;;5120883;27;20434;-78
2023/05/16 02:10:11;;;;;;;22.00;3.13;;;;;;;;;;5131090;27;20508;-77
2023/05/16 02:12:37;;;;;;;21.23;3.35;;;;;;;;;;5113689;27;20897;-78
2023/05/16 02:15:03;;;;;;;22.60;3.80;;;;;;;;;;5138238;27;20039;-78
2023/05/16 02:17:29;;;;;;;23.75;3.42;;;;;;;;;;5136163;27;20444;-78
2023/05/16 02:19:55;;;;;;;21.73;2.97;;;;;;;;;;5135159;27;20114;-77
2023/05/16 02:22:21;;;;;;;16.83;2.58;;;;;;;;;;5132227;27;20038;-79
2023/05/16 02:24:47;;;;;;;19.30;3.00;;;;;;;;;;5136878;27;20107;-78
2023/05/16 02:27:13;;;;;;;16.13;2.67;;;;;;;;;;5137008;27;20042;-77
2023/05/16 02:29:39;;;;;;;15.85;2.88;;;;;;;;;;5118121;27;20050;-79
2023/05/16 02:32:06;;;;;;;20.77;2.80;;;;;;;;;;5135651;27;20047;-79
2023/05/16 02:34:32;;;;;;;18.70;2.72;;;;;;;;;;5132869;27;20133;-77
2023/05/16 02:36:58;;;;;;;15.52;2.50;;;;;;;;;;5118314;27;20035;-78
2023/05/16 02:39:24;;;;;;;15.02;2.83;;;;;;;;;;5135661;27;20087;-78
2023/05/16 02:41:50;;;;;;;17.42;2.70;;;;;;;;;;5134426;27;20043;-78
2023/05/16 02:44:16;;;;;;;21.88;3.38;;;;;;;;;;5131942;27;20049;-78
2023/05/16 02:46:42;;;;;;;18.42;2.55;;;;;;;;;;5137202;27;20047;-77
2023/05/16 02:49:08;;;;;;;17.63;2.60;;;;;;;;;;5135229;27;20050;-77
2023/05/16 02:51:34;;;;;;;18.13;2.33;;;;;;;;;;5136788;27;20050;-77
2023/05/16 02:54:00;;;;;;;13.55;2.75;;;;;;;;;;5131807;27;20039;-77
2023/05/16 02:56:27;;;;;;;17.90;3.10;;;;;;;;;;5137252;27;20039;-77
2023/05/16 02:58:53;;;;;;;16.90;2.42;;;;;;;;;;5135970;27;20098;-77
2023/05/16 03:01:19;;;;;;;14.65;2.92;;;;;;;;;;5136379;27;20039;-76
2023/05/16 03:03:46;;;;;;;22.17;3.22;;;;;;;;;;5118058;27;20050;-76
2023/05/16 03:06:12;;;;;;;13.77;2.40;;;;;;;;;;5135081;27;20043;-77
2023/05/16 03:08:38;;;;;;;18.55;2.47;;;;;;;;;;5134954;27;20496;-77
2023/05/16 03:11:04;;;;;;;18.92;2.88;;;;;;;;;;5134899;27;20405;-77
2023/05/16 03:13:30;;;;;;;15.45;2.28;;;;;;;;;;5135484;27;20504;-76
2023/05/16 03:15:56;;;;;;;16.73;2.33;;;;;;;;;;5134437;27;20078;-76
2023/05/16 03:18:23;;;;;;;16.00;1.95;;;;;;;;;;5136085;27;20051;-77
2023/05/16 03:20:51;;;;;;;15.45;2.50;;;;;;;;;;5134231;27;20040;-77
2023/05/16 03:23:17;;;;;;;17.40;3.05;;;;;;;;;;5130649;27;20047;-79
2023/05/16 03:25:45;;;;;;;16.27;2.63;;;;;;;;;;5130112;27;20043;-77
2023/05/16 03:28:11;;;;;;;16.40;2.17;;;;;;;;;;5127522;27;20551;-76
2023/05/16 03:30:37;;;;;;;17.15;2.95;;;;;;;;;;5134431;27;20126;-77
2023/05/16 03:33:03;;;;;;;14.15;2.63;;;;;;;;;;5131825;27;20040;-78
2023/05/16 03:35:31;;;;;;;15.15;2.67;;;;;;;;;;5134133;27;20092;-76
2023/05/16 03:37:57;;;;;;;18.15;2.95;;;;;;;;;;5133535;27;20059;-77
2023/05/16 03:40:23;;;;;;;21.30;2.55;;;;;;;;;;5133642;27;20070;-76
2023/05/16 03:42:49;;;;;;;16.95;2.63;;;;;;;;;;5115567;27;20051;-77
2023/05/16 03:45:15;;;;;;;19.10;2.35;;;;;;;;;;5131949;27;20119;-78
2023/05/16 03:47:42;;;;;;;19.02;3.00;;;;;;;;;;5097554;27;20465;-78
2023/05/16 03:50:08;;;;;;;16.58;2.55;;;;;;;;;;5134640;27;20046;-78
2023/05/16 03:52:35;;;;;;;20.70;2.70;;;;;;;;;;5132295;27;20172;-78
2023/05/16 03:55:02;;;;;;;19.45;2.45;;;;;;;;;;5132207;27;20369;-77
2023/05/16 03:57:32;;;;;;;16.10;2.83;;;;;;;;;;5110045;27;20398;-77
2023/05/16 03:59:58;;;;;;;15.40;3.08;;;;;;;;;;5127962;27;20393;-77
2023/05/16 04:02:25;;;;;;;13.75;2.25;;;;;;;;;;5134250;27;20047;-77
2023/05/16 04:04:51;;;;;;;23.35;2.70;;;;;;;;;;5135662;27;20457;-77
2023/05/16 04:07:17;;;;;;;14.98;2.13;;;;;;;;;;5134938;27;20047;-77
2023/05/16 04:09:43;;;;;;;17.55;2.65;;;;;;;;;;5132407;27;20498;-78
2023/05/16 04:12:09;;;;;;;20.50;2.42;;;;;;;;;;5131700;27;20434;-77
2023/05/16 04:14:35;;;;;;;17.10;2.60;;;;;;;;;;5132875;27;20047;-77
2023/05/16 04:17:01;;;;;;;13.00;2.63;;;;;;;;;;5132055;27;20069;-77
2023/05/16 04:19:27;;;;;;;20.30;2.70;;;;;;;;;;5133159;27;20145;-77
2023/05/16 04:21:53;;;;;;;20.85;2.50;;;;;;;;;;5133739;27;20226;-77
2023/05/16 04:24:19;;;;;;;19.15;2.88;;;;;;;;;;5111495;27;20051;-77
2023/05/16 04:26:46;;;;;;;18.58;2.72;;;;;;;;;;5114270;27;20062;-77
2023/05/16 04:29:13;;;;;;;17.48;2.58;;;;;;;;;;5126054;27;20050;-77
2023/05/16 04:31:39;;;;;;;21.40;3.45;;;;;;;;;;5132248;27;20438;-77
2023/05/16 04:34:05;;;;;;;16.50;2.50;;;;;;;;;;5133445;27;20126;-77
2023/05/16 04:36:31;;;;;;;16.75;2.50;;;;;;;;;;5128472;27;20039;-77
2023/05/16 04:38:57;;;;;;;17.67;3.28;;;;;;;;;;5125982;27;20043;-77
2023/05/16 04:41:24;;;;;;;16.38;3.00;;;;;;;;;;5128264;27;20106;-77
2023/05/16 04:43:50;;;;;;;15.75;2.58;;;;;;;;;;5124623;28;20749;-78
2023/05/16 04:46:16;;;;;;;14.65;2.47;;;;;;;;;;5126651;27;20055;-76
2023/05/16 04:48:42;;;;;;;18.33;2.90;;;;;;;;;;5124907;27;20043;-77
2023/05/16 04:51:08;;;;;;;15.57;2.75;;;;;;;;;;5126741;28;20046;-76
2023/05/16 04:53:34;;;;;;;18.10;2.97;;;;;;;;;;5127150;28;20638;-76
2023/05/16 04:56:00;;;;;;;21.75;3.45;;;;;;;;;;5126156;28;20062;-77
2023/05/16 04:58:27;;;;;;;15.88;2.70;;;;;;;;;;5126994;28;20039;-77
2023/05/16 05:00:54;;;;;;;13.40;2.45;;;;;;;;;;5127293;28;20071;-76
2023/05/16 05:03:20;;;;;;;17.20;2.65;;;;;;;;;;5125171;28;20039;-78
2023/05/16 05:05:47;;;;;;;14.10;2.65;;;;;;;;;;5132683;28;20039;-77
2023/05/16 05:08:13;;;;;;;16.98;2.45;;;;;;;;;;5122426;28;20044;-77
2023/05/16 05:10:39;;;;;;;18.55;3.40;;;;;;;;;;5129778;28;20387;-77
2023/05/16 05:13:06;;;;;;;18.50;2.63;;;;;;;;;;5131599;28;20073;-77
2023/05/16 05:15:32;;;;;;;14.43;2.55;;;;;;;;;;5131017;28;20055;-77
2023/05/16 05:17:58;;;;;;;19.58;2.70;;;;;;;;;;5131191;28;20110;-76
2023/05/16 05:20:25;;;;;;;15.00;2.35;;;;;;;;;;5123766;28;20049;-76
2023/05/16 05:22:51;;;;;;;14.38;2.35;;;;;;;;;;5130800;28;20043;-75
2023/05/16 05:25:17;;;;;;;13.95;2.75;;;;;;;;;;5133533;28;20392;-77
2023/05/16 05:27:43;;;;;;;20.73;3.10;;;;;;;;;;5132704;28;20055;-78
2023/05/16 05:30:10;;;;;;;15.13;3.15;;;;;;;;;;5126677;28;20500;-77
2023/05/16 05:32:36;;;;;;;14.98;2.53;;;;;;;;;;5129857;28;20043;-77
2023/05/16 05:35:02;;;;;;;17.95;2.63;;;;;;;;;;5128021;28;20040;-77
2023/05/16 05:37:28;;;;;;;12.27;2.08;;;;;;;;;;5133506;28;20453;-76
2023/05/16 05:39:55;;;;;;;12.93;2.58;;;;;;;;;;5135464;27;20039;-76
2023/05/16 05:42:21;;;;;;;14.50;1.88;;;;;;;;;;5138406;27;20185;-77
2023/05/16 05:44:47;;;;;;;13.63;2.10;;;;;;;;;;5136370;27;20039;-77
2023/05/16 05:47:13;;;;;;;13.25;2.40;;;;;;;;;;5132815;27;20124;-77
2023/05/16 05:49:40;;;;;;;12.05;1.83;;;;;;;;;;5124656;27;20035;-78
2023/05/16 05:52:06;;;;;;;12.15;2.13;;;;;;;;;;5136060;27;20046;-77
2023/05/16 05:54:32;;;;;;;12.88;3.45;;;;;;;;;;5131869;27;20260;-77
2023/05/16 05:56:58;;;;;;;12.95;2.80;;;;;;;;;;5128896;27;20039;-77
2023/05/16 05:59:25;;;;;;;14.05;2.45;;;;;;;;;;5114956;27;20055;-77
2023/05/16 06:01:51;;;;;;;12.07;2.20;;;;;;;;;;5118461;27;20488;-77
2023/05/16 06:04:21;;;;;;;14.68;2.30;;;;;;;;;;5133416;27;20049;-78
2023/05/16 06:06:47;;;;;;;11.75;2.03;;;;;;;;;;5134410;27;20377;-77
2023/05/16 06:09:13;;;;;;;12.30;2.35;;;;;;;;;;5117877;27;20122;-77
2023/05/16 06:11:40;;;;;;;13.27;2.15;;;;;;;;;;5137202;27;20547;-78
2023/05/16 06:14:06;;;;;;;11.25;2.13;;;;;;;;;;5123240;27;20202;-76
2023/05/16 06:16:32;;;;;;;12.10;2.28;;;;;;;;;;5132515;27;20049;-77
2023/05/16 06:18:58;;;;;;;12.13;2.40;;;;;;;;;;5132766;27;20432;-76
2023/05/16 06:21:24;;;;;;;10.60;2.10;;;;;;;;;;5135809;27;20039;-77
2023/05/16 06:23:50;;;;;;;10.88;2.22;;;;;;;;;;5136797;27;20054;-77
2023/05/16 06:26:16;;;;;;;11.85;2.30;;;;;;;;;;5136554;27;20047;-78
2023/05/16 06:28:42;;;;;;;11.18;1.90;;;;;;;;;;5136949;27;20115;-76
2023/05/16 06:31:09;;;;;;;11.88;2.22;;;;;;;;;;5119528;27;20039;-75
2023/05/16 06:33:35;;;;;;;9.57;1.75;;;;;;;;;;5133825;27;20142;-77
2023/05/16 06:36:01;;;;;;;12.20;2.10;;;;;;;;;;5134405;27;20059;-77
2023/05/16 06:38:27;;;;;;;11.95;1.92;;;;;;;;;;5133522;27;20043;-77
2023/05/16 06:40:53;;;;;;;10.55;1.70;;;;;;;;;;5142840;27;20047;-77
2023/05/16 06:43:19;;;;;;;12.93;2.10;;;;;;;;;;5131812;27;20079;-77
2023/05/16 06:45:45;;;;;;;13.27;1.92;;;;;;;;;;5120414;27;20055;-76
2023/05/16 06:48:13;;;;;;;10.45;1.95;;;;;;;;;;5132119;27;20070;-76
2023/05/16 06:50:39;;;;;;;11.07;1.83;;;;;;;;;;5134906;27;20074;-77
2023/05/16 06:53:06;;;;;;;12.43;1.90;;;;;;;;;;5136145;27;20472;-78
2023/05/16 06:55:32;;;;;;;10.20;1.80;;;;;;;;;;5134372;27;20049;-77
2023/05/16 06:57:58;;;;;;;12.00;2.50;;;;;;;;;;5136453;27;20041;-77
2023/05/16 07:00:25;;;;;;;9.80;2.17;;;;;;;;;;5135659;27;20040;-76
2023/05/16 07:02:52;;;;;;;9.82;2.08;;;;;;;;;;5134448;27;20047;-77
2023/05/16 07:05:18;;;;;;;11.48;2.10;;;;;;;;;;5133366;27;20044;-77
2023/05/16 07:07:44;;;;;;;11.98;2.40;;;;;;;;;;5117380;27;20070;-76
2023/05/16 07:10:10;;;;;;;10.90;1.60;;;;;;;;;;5135374;27;20093;-78
2023/05/16 07:12:37;;;;;;;8.63;1.75;;;;;;;;;;5134050;27;20481;-76
2023/05/16 07:15:03;;;;;;;12.65;1.77;;;;;;;;;;5134546;27;20126;-77
2023/05/16 07:17:29;;;;;;;10.82;1.90;;;;;;;;;;5134343;27;20547;-77
2023/05/16 07:19:55;;;;;;;11.70;1.75;;;;;;;;;;5135619;27;20051;-77
2023/05/16 07:22:21;;;;;;;7.60;1.48;;;;;;;;;;5127970;27;20067;-76
2023/05/16 07:24:47;;;;;;;12.05;1.85;;;;;;;;;;5129264;27;20541;-77
2023/05/16 07:27:13;;;;;;;10.68;1.75;;;;;;;;;;5125007;27;20416;-77
2023/05/16 07:29:41;;;;;;;9.25;1.90;;;;;;;;;;5115980;28;20039;-77
2023/05/16 07:32:07;;;;;;;9.57;1.42;;;;;;;;;;5131935;27;20050;-76
2023/05/16 07:34:33;;;;;;;7.78;1.52;;;;;;;;;;5136642;27;20077;-78
2023/05/16 07:36:59;;;;;;;5.88;1.23;;;;;;;;;;5115639;27;20035;-77
2023/05/16 07:39:25;;;;;;;7.57;1.35;;;;;;;;;;5136158;27;20507;-77
2023/05/16 07:41:51;;;;;;;8.95;1.60;;;;;;;;;;5118573;27;20126;-76
2023/05/16 07:44:17;;;;;;;7.30;1.38;;;;;;;;;;5136429;27;20055;-76
2023/05/16 07:46:43;;;;;;;8.82;1.70;;;;;;;;;;5135517;27;20043;-77
2023/05/16 07:49:09;;;;;;;8.80;1.75;;;;;;;;;;5136821;27;20035;-78
2023/05/16 07:51:35;;;;;;;9.52;1.60;;;;;;;;;;5134257;27;20043;-75
2023/05/16 07:54:02;;;;;;;10.02;1.70;;;;;;;;;;5134686;27;20043;-76
2023/05/16 07:56:28;;;;;;;8.98;1.40;;;;;;;;;;5134531;27;20486;-77
2023/05/16 07:58:54;;;;;;;7.03;1.52;;;;;;;;;;5134865;27;20488;-77
2023/05/16 08:01:20;;;;;;;6.68;1.27;;;;;;;;;;5131682;27;20130;-76
2023/05/16 08:03:46;;;;;;;10.20;1.40;;;;;;;;;;5129831;27;20044;-76
2023/05/16 08:06:12;;;;;;;8.93;1.20;;;;;;;;;;5117033;27;20050;-78
2023/05/16 08:08:38;;;;;;;10.13;1.50;;;;;;;;;;5136073;27;20043;-77
2023/05/16 08:11:04;;;;;;;9.07;1.58;;;;;;;;;;5135573;27;20046;-77
2023/05/16 08:13:30;;;;;;;10.05;1.85;;;;;;;;;;5135570;27;20054;-77
2023/05/16 08:15:56;;;;;;;7.97;1.38;;;;;;;;;;5117217;27;20130;-77
2023/05/16 08:18:22;;;;;;;9.60;1.35;;;;;;;;;;5128715;27;20157;-76
2023/05/16 08:20:49;;;;;;;7.55;1.25;;;;;;;;;;5114108;28;20043;-77
2023/05/16 08:23:15;;;;;;;8.20;1.52;;;;;;;;;;5113686;28;20044;-77
2023/05/16 08:25:41;;;;;;;10.52;1.70;;;;;;;;;;5115842;27;20377;-77
2023/05/16 08:28:07;;;;;;;9.95;1.67;;;;;;;;;;5131177;27;20068;-77
2023/05/16 08:30:33;;;;;;;8.15;1.85;;;;;;;;;;5131072;27;20040;-77
2023/05/16 08:33:03;;;;;;;10.25;1.60;;;;;;;;;;5133783;27;20050;-77
2023/05/16 08:35:29;;;;;;;8.38;1.70;;;;;;;;;;5132548;27;20483;-78
2023/05/16 08:37:56;;;;;;;8.45;1.75;;;;;;;;;;5112179;27;20098;-77
2023/05/16 08:45:32;;;;;;;9.02;1.75;;;;;;;;;;5040425;28;20045;-71
2023/05/16 08:48:00;;;;;;;8.20;1.63;;;;;;;;;;5041374;28;20056;-71
2023/05/16 08:50:28;;;;;;;7.78;1.70;;;;;;;;;;5052400;28;20041;-71
2023/05/16 08:52:55;;;;;;;10.18;1.75;;;;;;;;;;5025670;28;20041;-71
2023/05/16 08:55:21;;;;;;;6.50;1.20;;;;;;;;;;5052258;28;20045;-72
2023/05/16 08:57:49;;;;;;;7.30;1.65;;;;;;;;;;5050437;28;20128;-70
2023/05/16 09:00:18;;;;;;;9.52;1.60;;;;;;;;;;5046061;28;20045;-71
2023/05/16 09:02:44;;;;;;;7.82;1.55;;;;;;;;;;5024911;28;20551;-71
2023/05/16 09:05:14;;;;;;;9.73;1.50;;;;;;;;;;5045616;28;20045;-71
2023/05/16 09:07:40;;;;;;;6.05;1.50;;;;;;;;;;5052099;28;20056;-71
2023/05/16 09:10:07;;;;;;;8.40;1.75;;;;;;;;;;5051842;28;20055;-71
2023/05/16 09:12:33;;;;;;;8.35;1.45;;;;;;;;;;5041081;28;20037;-71
2023/05/16 09:15:01;;;;;;;11.18;1.50;;;;;;;;;;5031521;28;20095;-71
2023/05/16 09:17:33;;;;;;;10.48;1.33;;;;;;;;;;5031438;28;20406;-70
2023/05/16 09:20:00;;;;;;;7.30;1.10;;;;;;;;;;5054527;28;20457;-70
2023/05/16 09:22:26;;;;;;;8.48;1.00;;;;;;;;;;5053325;28;20080;-70
2023/05/16 09:24:52;;;;;;;5.28;0.95;;;;;;;;;;5048342;28;20478;-70
2023/05/16 09:27:18;;;;;;;6.72;1.00;;;;;;;;;;5052718;28;20124;-70
2023/05/16 09:29:44;;;;;;;5.57;0.88;;;;;;;;;;5036638;28;20038;-70
2023/05/16 09:32:13;;;;;;;7.60;1.20;;;;;;;;;;5036058;28;20475;-71
2023/05/16 09:34:43;;;;;;;7.72;1.20;;;;;;;;;;5035789;28;20088;-71
2023/05/16 09:37:10;;;;;;;8.95;1.33;;;;;;;;;;5035811;28;20048;-71
2023/05/16 09:39:36;;;;;;;8.30;1.40;;;;;;;;;;5035150;28;20149;-71
2023/05/16 09:42:02;;;;;;;8.63;1.20;;;;;;;;;;5055520;28;20103;-71
2023/05/16 09:44:28;;;;;;;9.27;1.35;;;;;;;;;;5037239;28;20053;-71
2023/05/16 09:46:55;;;;;;;8.85;1.55;;;;;;;;;;5055577;28;20056;-70
2023/05/16 09:49:21;;;;;;;10.00;1.60;;;;;;;;;;5055530;28;20132;-70
2023/05/16 09:51:47;;;;;;;9.68;1.45;;;;;;;;;;5040319;28;20446;-69
2023/05/16 09:54:14;;;;;;;8.23;1.50;;;;;;;;;;5032175;28;20730;-70
2023/05/16 09:56:50;;;;;;;8.05;1.42;;;;;;;;;;5028016;28;20049;-70
2023/05/16 09:59:16;;;;;;;10.65;1.80;;;;;;;;;;5041088;28;20049;-70
2023/05/16 10:01:43;;;;;;;10.63;1.25;;;;;;;;;;5027068;28;20045;-71
2023/05/16 10:04:12;;;;;;;9.07;1.63;;;;;;;;;;5030470;28;20385;-70
2023/05/16 10:06:40;;;;;;;8.05;1.45;;;;;;;;;;5013379;28;20085;-71
2023/05/16 10:09:06;;;;;;;8.95;1.65;;;;;;;;;;5031428;28;20058;-69
2023/05/16 10:11:33;;;;;;;8.63;1.80;;;;;;;;;;5033522;28;20051;-69
2023/05/16 10:13:59;;;;;;;9.38;1.55;;;;;;;;;;5035115;28;20068;-70
2023/05/16 10:16:25;;;;;;;9.75;1.33;;;;;;;;;;5015364;28;20117;-70
2023/05/16 10:18:52;;;;;;;9.48;1.65;;;;;;;;;;5029001;28;20052;-69
2023/05/16 10:21:19;;;;;;;9.77;1.70;;;;;;;;;;5054682;28;20047;-69
2023/05/16 10:23:48;;;;;;;8.10;1.50;;;;;;;;;;5037281;28;20098;-69
2023/05/16 10:26:15;;;;;;;10.07;1.65;;;;;;;;;;5032522;28;20156;-70
2023/05/16 10:28:41;;;;;;;10.68;1.50;;;;;;;;;;5033477;28;20045;-70
2023/05/16 10:31:09;;;;;;;9.00;1.50;;;;;;;;;;5035616;28;20045;-70
2023/05/16 10:33:36;;;;;;;10.18;1.42;;;;;;;;;;5045041;28;20128;-69
2023/05/16 10:36:04;;;;;;;6.68;1.42;;;;;;;;;;5046820;28;20049;-70
2023/05/16 10:38:30;;;;;;;12.48;1.55;;;;;;;;;;5031647;28;20446;-69
2023/05/16 10:40:56;;;;;;;11.32;1.85;;;;;;;;;;5032168;28;20034;-70
2023/05/16 10:43:27;;;;;;;8.57;1.50;;;;;;;;;;5053893;28;20045;-70
2023/05/16 10:45:54;;;;;;;9.70;1.85;;;;;;;;;;5054123;28;20045;-70
2023/05/16 10:48:27;;;;;;;10.70;1.92;;;;;;;;;;5002104;28;20048;-71
2023/05/16 10:50:53;;;;;;;8.80;1.40;;;;;;;;;;5032985;28;20071;-70
2023/05/16 10:53:29;;;;;;;7.53;1.67;;;;;;;;;;5014363;28;20049;-71
2023/05/16 10:55:58;;;;;;;7.75;1.25;;;;;;;;;;5010616;28;20038;-70
2023/05/16 10:58:31;;;;;;;8.95;1.60;;;;;;;;;;5033171;28;20544;-70
2023/05/16 11:01:14;;;;;;;8.40;1.33;;;;;;;;;;5032571;28;20106;-70
2023/05/16 11:03:59;;;;;;;9.18;1.33;;;;;;;;;;5030769;28;20076;-70
2023/05/16 11:06:26;;;;;;;7.38;1.35;;;;;;;;;;5011808;28;20111;-70
2023/05/16 11:09:12;;;;;;;10.45;1.50;;;;;;;;;;5037540;28;20052;-70
2023/05/16 11:11:46;;;;;;;10.05;1.40;;;;;;;;;;5036477;28;20053;-71
2023/05/16 11:14:28;;;;;;;11.18;1.65;;;;;;;;;;5031128;28;20044;-70
2023/05/16 11:17:03;;;;;;;9.68;1.70;;;;;;;;;;5014338;28;20126;-70
2023/05/16 11:19:46;;;;;;;11.13;1.77;;;;;;;;;;5037062;28;20419;-70
2023/05/16 11:22:20;;;;;;;8.20;1.65;;;;;;;;;;5030830;28;20040;-70
2023/05/16 11:24:53;;;;;;;11.60;1.60;;;;;;;;;;5029896;28;20522;-70
2023/05/16 11:27:21;;;;;;;13.63;2.08;;;;;;;;;;5014634;28;20464;-70
2023/05/16 11:29:47;;;;;;;9.23;1.60;;;;;;;;;;5016034;28;20062;-69
2023/05/16 11:32:14;;;;;;;8.82;1.67;;;;;;;;;;5012774;28;20390;-70
2023/05/16 11:34:40;;;;;;;7.47;1.60;;;;;;;;;;5034726;28;20037;-71
2023/05/16 11:37:07;;;;;;;7.38;1.48;;;;;;;;;;5042618;28;20372;-70
2023/05/16 11:39:33;;;;;;;9.13;1.42;;;;;;;;;;5039065;28;20426;-70
2023/05/16 11:41:59;;;;;;;11.40;1.40;;;;;;;;;;5033610;28;20073;-70
2023/05/16 11:44:25;;;;;;;9.23;1.38;;;;;;;;;;5018864;28;20057;-70
2023/05/16 11:46:51;;;;;;;14.45;1.60;;;;;;;;;;5047732;28;20405;-70
2023/05/16 11:49:17;;;;;;;8.15;1.50;;;;;;;;;;5039715;28;20053;-70
2023/05/16 11:51:43;;;;;;;7.45;1.50;;;;;;;;;;5049560;28;20115;-70
2023/05/16 11:54:11;;;;;;;10.50;1.42;;;;;;;;;;5044468;28;20037;-70
2023/05/16 11:56:38;;;;;;;7.45;1.00;;;;;;;;;;5048168;28;20402;-70
2023/05/16 11:59:04;;;;;;;8.63;1.40;;;;;;;;;;5034503;28;20507;-70
2023/05/16 12:01:38;;;;;;;10.98;1.83;;;;;;;;;;5026484;28;20069;-70
2023/05/16 12:04:11;;;;;;;8.73;1.73;;;;;;;;;;5040533;28;20055;-71
2023/05/16 12:06:37;;;;;;;9.50;1.85;;;;;;;;;;5035094;28;20048;-70
2023/05/16 12:09:09;;;;;;;8.13;1.85;;;;;;;;;;5031806;28;20060;-70
2023/05/16 12:11:37;;;;;;;10.93;2.28;;;;;;;;;;5017312;28;20050;-70
2023/05/16 12:14:03;;;;;;;15.50;2.28;;;;;;;;;;5045166;28;20080;-70
2023/05/16 12:16:30;;;;;;;7.03;1.77;;;;;;;;;;5037027;28;20052;-70
2023/05/16 12:18:57;;;;;;;10.35;2.00;;;;;;;;;;5042041;28;20049;-70
2023/05/16 12:21:24;;;;;;;10.30;2.35;;;;;;;;;;5027737;28;20045;-70
2023/05/16 12:23:50;;;;;;;10.07;2.17;;;;;;;;;;5011415;28;20037;-70
2023/05/16 12:26:22;;;;;;;9.32;2.10;;;;;;;;;;5044049;28;20051;-70
2023/05/16 12:28:55;;;;;;;9.90;2.38;;;;;;;;;;5037108;28;20060;-70
2023/05/16 12:31:21;;;;;;;11.57;2.20;;;;;;;;;;5042073;28;20041;-70
2023/05/16 12:33:47;;;;;;;8.07;1.98;;;;;;;;;;5049233;28;20498;-71
2023/05/16 12:36:14;;;;;;;14.20;2.10;;;;;;;;;;5030115;28;20045;-70
2023/05/16 12:38:41;;;;;;;11.57;2.30;;;;;;;;;;5031477;28;20045;-71
2023/05/16 12:41:07;;;;;;;9.70;3.03;;;;;;;;;;5039558;28;20046;-70
2023/05/16 12:43:33;;;;;;;9.75;2.97;;;;;;;;;;5030300;28;20041;-71
2023/05/16 12:45:59;;;;;;;11.35;3.00;;;;;;;;;;5035760;28;20071;-71
2023/05/16 12:48:34;;;;;;;11.68;2.80;;;;;;;;;;5017912;28;20053;-70
2023/05/16 12:51:16;;;;;;;7.28;2.13;;;;;;;;;;5031511;28;20037;-71
2023/05/16 12:53:49;;;;;;;10.07;2.63;;;;;;;;;;5032276;28;20117;-70
2023/05/16 12:56:15;;;;;;;12.55;2.33;;;;;;;;;;5031609;28;20085;-70
2023/05/16 12:58:42;;;;;;;13.93;2.72;;;;;;;;;;5027808;28;20041;-70
2023/05/16 13:01:08;;;;;;;11.82;2.35;;;;;;;;;;5011465;28;20073;-70
2023/05/16 13:03:35;;;;;;;9.93;2.95;;;;;;;;;;5016678;28;20445;-70
2023/05/16 13:06:02;;;;;;;8.65;2.38;;;;;;;;;;5032023;28;20042;-70
2023/05/16 13:08:29;;;;;;;11.07;2.67;;;;;;;;;;4990692;28;20056;-70
2023/05/16 13:10:55;;;;;;;8.23;2.45;;;;;;;;;;5029974;28;20037;-70
2023/05/16 13:13:21;;;;;;;11.63;2.65;;;;;;;;;;5032917;28;20081;-70
2023/05/16 13:15:47;;;;;;;11.07;2.45;;;;;;;;;;5031262;28;20041;-70
2023/05/16 13:18:14;;;;;;;10.43;3.00;;;;;;;;;;5029665;28;20444;-70
2023/05/16 13:20:40;;;;;;;10.95;3.00;;;;;;;;;;5031192;28;20513;-70
2023/05/16 13:23:06;;;;;;;11.35;2.97;;;;;;;;;;5030352;28;20124;-70
2023/05/16 13:25:33;;;;;;;8.82;3.00;;;;;;;;;;5032130;28;20045;-70
2023/05/16 13:27:59;;;;;;;11.48;2.80;;;;;;;;;;5029861;28;20506;-70
2023/05/16 13:30:25;;;;;;;13.35;3.20;;;;;;;;;;5030501;28;20095;-70
2023/05/16 13:32:51;;;;;;;12.90;2.97;;;;;;;;;;5032239;28;20425;-70
2023/05/16 13:35:18;;;;;;;8.93;2.50;;;;;;;;;;5029363;28;20049;-70
2023/05/16 13:37:44;;;;;;;12.23;2.88;;;;;;;;;;5028748;28;20081;-70
2023/05/16 13:40:11;;;;;;;22.98;3.38;;;;;;;;;;5015368;28;20064;-70
2023/05/16 13:42:37;;;;;;;11.73;2.90;;;;;;;;;;5029599;28;20056;-70
2023/05/16 13:45:04;;;;;;;9.30;2.65;;;;;;;;;;5005351;28;20090;-70
2023/05/16 13:47:31;;;;;;;8.90;2.80;;;;;;;;;;4996501;28;20049;-70
2023/05/16 13:49:58;;;;;;;8.45;3.20;;;;;;;;;;5027994;28;20059;-70
2023/05/16 13:52:24;;;;;;;9.25;3.13;;;;;;;;;;5038028;28;20120;-70
2023/05/16 13:54:50;;;;;;;9.90;3.03;;;;;;;;;;5000225;28;20041;-71
2023/05/16 13:57:17;;;;;;;7.45;2.90;;;;;;;;;;5011582;28;20057;-70
2023/05/16 13:59:43;;;;;;;10.57;3.20;;;;;;;;;;5031647;28;20041;-71
2023/05/16 14:02:09;;;;;;;11.13;3.10;;;;;;;;;;5027505;28;20471;-71
2023/05/16 14:04:35;;;;;;;9.63;3.15;;;;;;;;;;5031563;28;20057;-71
2023/05/16 14:07:02;;;;;;;8.43;3.15;;;;;;;;;;5030245;28;20041;-71
2023/05/16 14:09:28;;;;;;;10.15;2.97;;;;;;;;;;5033084;28;20077;-72
2023/05/16 14:11:54;;;;;;;10.05;3.30;;;;;;;;;;5048605;28;20048;-72
2023/05/16 14:14:20;;;;;;;9.15;2.95;;;;;;;;;;5034493;28;20045;-72
2023/05/16 14:16:46;;;;;;;10.88;3.42;;;;;;;;;;5035169;28;20131;-71
2023/05/16 14:19:13;;;;;;;10.52;3.70;;;;;;;;;;5019942;28;20052;-72
2023/05/16 14:21:39;;;;;;;11.48;3.50;;;;;;;;;;5033803;28;20044;-71
2023/05/16 14:24:05;;;;;;;11.27;3.55;;;;;;;;;;5014541;28;20049;-71
2023/05/16 14:26:31;;;;;;;14.18;3.58;;;;;;;;;;5012175;28;20053;-71
2023/05/16 14:28:57;;;;;;;10.55;3.05;;;;;;;;;;5034491;28;20058;-71
2023/05/16 14:31:24;;;;;;;14.25;3.10;;;;;;;;;;5027832;28;20047;-71
2023/05/16 14:33:51;;;;;;;9.95;3.20;;;;;;;;;;5054197;28;20453;-70
2023/05/16 14:36:17;;;;;;;10.02;3.08;;;;;;;;;;5032487;28;20077;-70
2023/05/16 14:38:43;;;;;;;9.85;3.17;;;;;;;;;;5021210;28;20049;-71